createdAt,value
2023-01-19T00:01:30.887Z,71.80
2023-01-19T00:03:59.192Z,72.44
2023-01-19T00:06:27.223Z,73.12
2023-01-19T00:08:55.565Z,72.84
2023-01-19T00:11:23.584Z,72.05
2023-01-19T00:13:52.110Z,71.76
2023-01-19T00:16:23.329Z,72.85
2023-01-19T00:18:52.633Z,73.02
2023-01-19T00:21:22.495Z,73.26
2023-01-19T00:23:52.872Z,72.79
2023-01-19T00:26:22.888Z,72.41
2023-01-19T00:28:52.980Z,72.71
2023-01-19T00:31:22.339Z,72.65
2023-01-19T00:33:52.842Z,72.97
2023-01-19T00:36:21.008Z,72.29
2023-01-19T00:38:48.913Z,72.42
2023-01-19T00:41:17.177Z,72.65
2023-01-19T00:43:45.073Z,72.32
2023-01-19T00:46:13.105Z,72.66
2023-01-19T00:48:42.681Z,71.90
2023-01-19T00:51:10.556Z,71.79
2023-01-19T00:53:38.604Z,72.01
2023-01-19T00:56:07.847Z,71.73
2023-01-19T00:58:35.829Z,71.97
2023-01-19T01:01:05.108Z,71.46
2023-01-19T01:03:33.642Z,71.43
2023-01-19T01:06:03.774Z,71.81
2023-01-19T01:08:34.512Z,70.82
2023-01-19T01:11:03.504Z,70.72
2023-01-19T01:13:31.688Z,70.37
2023-01-19T01:15:59.833Z,70.56
2023-01-19T01:18:30.230Z,70.15
2023-01-19T01:21:03.583Z,69.86
2023-01-19T01:23:31.489Z,69.12
2023-01-19T01:25:59.434Z,68.39
2023-01-19T01:28:27.846Z,68.78
2023-01-19T01:30:56.442Z,68.09
2023-01-19T01:33:40.530Z,67.02
2023-01-19T01:36:12.127Z,66.61
2023-01-19T01:38:40.354Z,67.64
2023-01-19T01:41:08.626Z,67.94
2023-01-19T01:43:48.029Z,68.25
2023-01-19T01:46:17.396Z,68.64
2023-01-19T01:48:50.835Z,67.94
2023-01-19T01:51:27.134Z,66.79
2023-01-19T01:54:07.850Z,66.43
2023-01-19T01:56:38.693Z,66.65
2023-01-19T01:59:10.003Z,66.45
2023-01-19T02:01:56.176Z,66.31
2023-01-19T02:04:24.981Z,66.32
2023-01-19T02:07:12.040Z,66.49
2023-01-19T02:09:57.339Z,66.00
2023-01-19T02:12:43.269Z,66.47
2023-01-19T02:15:19.236Z,65.49
2023-01-19T02:17:47.968Z,65.04
2023-01-19T02:20:17.177Z,65.45
2023-01-19T02:22:50.539Z,64.74
2023-01-19T02:25:21.152Z,65.42
2023-01-19T02:27:49.402Z,66.41
2023-01-19T02:30:18.715Z,66.09
2023-01-19T02:32:46.819Z,65.71
2023-01-19T02:35:14.889Z,65.64
2023-01-19T02:37:45.601Z,65.89
2023-01-19T02:40:16.516Z,65.19
2023-01-19T02:42:49.735Z,65.39
2023-01-19T02:45:22.956Z,64.99
2023-01-19T02:47:52.751Z,64.95
2023-01-19T02:50:43.696Z,65.58
2023-01-19T02:53:47.592Z,65.36
2023-01-19T02:56:36.358Z,65.48
2023-01-19T02:59:15.659Z,64.96
2023-01-19T03:02:01.800Z,64.94
2023-01-19T03:04:35.803Z,65.03
2023-01-19T03:07:09.305Z,65.94
2023-01-19T03:09:44.426Z,64.64
2023-01-19T03:12:22.154Z,65.03
2023-01-19T03:14:52.568Z,65.61
2023-01-19T03:17:21.570Z,65.44
2023-01-19T03:19:51.966Z,65.13
2023-01-19T03:22:26.003Z,65.07
2023-01-19T03:24:57.992Z,64.46
2023-01-19T03:27:29.556Z,64.13
2023-01-19T03:30:02.456Z,63.15
2023-01-19T03:32:35.663Z,63.35
2023-01-19T03:35:10.344Z,62.61
2023-01-19T03:37:42.226Z,63.14
2023-01-19T03:40:11.890Z,62.98
2023-01-19T03:42:41.749Z,62.75
2023-01-19T03:45:13.895Z,63.28
2023-01-19T03:47:42.262Z,63.53
2023-01-19T03:50:15.565Z,64.19
2023-01-19T03:52:44.049Z,63.04
2023-01-19T03:55:12.598Z,62.65
2023-01-19T03:57:40.620Z,62.76
2023-01-19T04:00:12.198Z,62.20
2023-01-19T04:02:40.125Z,63.21
2023-01-19T04:05:08.739Z,62.47
2023-01-19T04:07:36.662Z,62.25
2023-01-19T04:10:04.974Z,62.37
2023-01-19T04:12:32.929Z,62.20
2023-01-19T04:15:00.921Z,62.09
2023-01-19T04:17:30.160Z,60.64
2023-01-19T04:19:58.062Z,60.36
2023-01-19T04:22:25.950Z,60.73
2023-01-19T04:24:53.821Z,61.02
2023-01-19T04:27:21.720Z,60.02
2023-01-19T04:29:49.675Z,60.50
2023-01-19T04:32:17.539Z,60.00
2023-01-19T04:34:46.854Z,59.10
2023-01-19T04:37:14.853Z,59.72
2023-01-19T04:39:42.753Z,58.99
2023-01-19T04:42:10.742Z,58.55
2023-01-19T04:44:38.744Z,59.08
2023-01-19T04:47:06.677Z,59.36
2023-01-19T04:49:37.655Z,58.47
2023-01-19T04:52:07.788Z,57.58
2023-01-19T04:54:35.774Z,57.66
2023-01-19T04:57:03.748Z,57.74
2023-01-19T04:59:31.664Z,57.32
2023-01-19T05:02:00.226Z,57.73
2023-01-19T05:04:28.722Z,57.63
2023-01-19T05:06:58.347Z,57.24
2023-01-19T05:09:28.041Z,57.81
2023-01-19T05:11:55.947Z,57.11
2023-01-19T05:14:24.011Z,57.25
2023-01-19T05:16:51.963Z,57.33
2023-01-19T05:19:19.977Z,57.51
2023-01-19T05:21:48.098Z,58.12
2023-01-19T05:24:16.498Z,57.96
2023-01-19T05:26:45.707Z,57.81
2023-01-19T05:29:14.069Z,57.55
2023-01-19T05:31:41.999Z,57.21
2023-01-19T05:34:12.633Z,56.88
2023-01-19T05:36:40.522Z,57.06
2023-01-19T05:39:08.556Z,56.73
2023-01-19T05:41:36.993Z,57.03
2023-01-19T05:44:06.552Z,56.72
2023-01-19T05:46:35.172Z,56.34
2023-01-19T05:49:05.023Z,56.89
2023-01-19T05:51:37.962Z,56.83
2023-01-19T05:54:06.190Z,56.46
2023-01-19T05:56:34.580Z,56.20
2023-01-19T05:59:02.855Z,57.06
2023-01-19T06:01:33.347Z,56.51
2023-01-19T06:04:01.353Z,56.78
2023-01-19T06:06:29.402Z,56.76
2023-01-19T06:08:57.511Z,56.85
2023-01-19T06:11:26.170Z,56.67
2023-01-19T06:13:54.367Z,56.41
2023-01-19T06:16:22.421Z,56.27
2023-01-19T06:18:51.836Z,56.52
2023-01-19T06:21:20.031Z,56.14
2023-01-19T06:23:48.062Z,56.35
2023-01-19T06:26:15.997Z,56.33
2023-01-19T06:28:43.929Z,55.88
2023-01-19T06:31:12.040Z,56.40
2023-01-19T06:33:40.185Z,56.44
2023-01-19T06:36:10.315Z,56.20
2023-01-19T06:38:38.334Z,56.07
2023-01-19T06:41:06.867Z,56.04
2023-01-19T06:43:35.165Z,55.81
2023-01-19T06:46:04.052Z,54.49
2023-01-19T06:48:32.163Z,55.25
2023-01-19T06:51:01.423Z,54.50
2023-01-19T06:53:32.069Z,54.90
2023-01-19T06:56:01.112Z,54.05
2023-01-19T06:58:30.574Z,54.40
2023-01-19T07:01:02.448Z,54.09
2023-01-19T07:03:31.436Z,53.85
2023-01-19T07:06:02.386Z,54.00
2023-01-19T07:08:31.959Z,54.06
2023-01-19T07:11:25.462Z,54.17
2023-01-19T07:13:51.823Z,54.23
2023-01-19T07:16:22.130Z,53.95
2023-01-19T07:18:51.124Z,53.67
2023-01-19T07:21:19.708Z,53.02
2023-01-19T07:23:51.558Z,53.07
2023-01-19T07:26:21.651Z,52.46
2023-01-19T07:28:50.523Z,52.84
2023-01-19T07:31:19.143Z,52.19
2023-01-19T07:33:47.529Z,52.47
2023-01-19T07:36:15.774Z,52.50
2023-01-19T07:38:43.740Z,52.15
2023-01-19T07:41:13.341Z,52.61
2023-01-19T07:43:41.460Z,52.48
2023-01-19T07:46:09.574Z,53.13
2023-01-19T07:48:37.687Z,52.64
2023-01-19T07:51:10.385Z,52.26
2023-01-19T07:53:42.037Z,52.01
2023-01-19T07:56:10.712Z,52.07
2023-01-19T07:58:40.876Z,51.61
2023-01-19T08:01:10.225Z,51.79
2023-01-19T08:03:38.543Z,51.68
2023-01-19T08:06:07.235Z,51.58
2023-01-19T08:08:35.815Z,51.77
2023-01-19T08:11:04.159Z,51.00
2023-01-19T08:13:32.226Z,51.31
2023-01-19T08:16:01.570Z,51.46
2023-01-19T08:18:29.604Z,51.70
2023-01-19T08:20:59.744Z,50.93
2023-01-19T08:23:28.114Z,51.13
2023-01-19T08:25:56.103Z,51.48
2023-01-19T08:28:24.947Z,51.10
2023-01-19T08:30:55.531Z,50.96
2023-01-19T08:33:25.825Z,50.82
2023-01-19T08:35:54.990Z,50.75
2023-01-19T08:38:22.991Z,51.21
2023-01-19T08:40:50.976Z,50.88
2023-01-19T08:43:19.448Z,50.93
2023-01-19T08:45:52.047Z,50.65
2023-01-19T08:56:00.200Z,50.80
2023-01-19T08:58:28.495Z,50.78
2023-01-19T09:00:57.198Z,51.27
2023-01-19T09:03:25.211Z,51.49
2023-01-19T09:05:53.387Z,51.51
2023-01-19T09:08:21.936Z,51.21
2023-01-19T09:10:52.074Z,51.39
2023-01-19T09:13:21.935Z,51.72
2023-01-19T09:15:49.988Z,51.23
2023-01-19T09:18:20.405Z,51.52
2023-01-19T09:20:51.008Z,51.19
2023-01-19T09:23:21.135Z,51.18
2023-01-19T09:25:49.965Z,50.28
2023-01-19T09:28:19.074Z,50.46
2023-01-19T09:30:48.708Z,50.05
2023-01-19T09:33:19.556Z,50.02
2023-01-19T09:35:49.534Z,49.58
2023-01-19T09:38:18.374Z,49.41
2023-01-19T09:40:50.367Z,49.98
2023-01-19T09:43:29.828Z,49.34
2023-01-19T09:46:01.633Z,49.48
2023-01-19T09:48:43.800Z,49.76
2023-01-19T09:51:16.843Z,49.78
2023-01-19T09:54:06.294Z,49.71
2023-01-19T09:56:34.698Z,49.81
2023-01-19T09:59:04.614Z,49.65
2023-01-19T10:01:46.649Z,49.13
2023-01-19T10:04:29.668Z,49.33
2023-01-19T10:07:08.125Z,48.95
2023-01-19T10:09:44.322Z,49.58
2023-01-19T10:12:19.961Z,49.30
2023-01-19T10:14:54.494Z,49.71
2023-01-19T10:17:37.265Z,49.58
2023-01-19T10:20:14.774Z,50.11
2023-01-19T10:22:52.095Z,49.93
2023-01-19T10:25:23.867Z,50.40
2023-01-19T10:27:52.017Z,50.01
2023-01-19T10:30:23.788Z,49.64
2023-01-19T10:32:54.209Z,49.47
2023-01-19T10:35:25.489Z,49.57
2023-01-19T10:37:56.786Z,50.27
2023-01-19T10:40:33.271Z,50.05
2023-01-19T10:43:02.032Z,50.51
2023-01-19T10:45:32.641Z,49.94
2023-01-19T10:48:07.481Z,49.93
2023-01-19T10:50:39.877Z,50.73
2023-01-19T10:53:20.587Z,50.74
2023-01-19T10:55:48.760Z,50.28
2023-01-19T10:58:30.578Z,50.20
2023-01-19T11:01:15.116Z,50.17
2023-01-19T11:03:46.743Z,51.13
2023-01-19T11:06:23.168Z,51.19
2023-01-19T11:08:53.038Z,51.38
2023-01-19T11:11:22.756Z,51.35
2023-01-19T11:14:08.133Z,51.34
2023-01-19T11:16:38.254Z,51.62
2023-01-19T11:19:20.503Z,51.02
2023-01-19T11:21:48.847Z,51.08
2023-01-19T11:24:18.171Z,50.98
2023-01-19T11:26:49.538Z,50.73
2023-01-19T11:29:21.418Z,51.08
2023-01-19T11:31:50.164Z,50.68
2023-01-19T11:34:32.386Z,50.89
2023-01-19T11:37:04.475Z,50.46
2023-01-19T11:39:46.329Z,50.96
2023-01-19T11:42:15.850Z,50.68
2023-01-19T11:44:49.511Z,50.82
2023-01-19T11:47:26.451Z,50.32
2023-01-19T11:50:01.486Z,50.32
2023-01-19T11:52:34.881Z,50.15
2023-01-19T11:55:12.362Z,50.05
2023-01-19T11:57:46.570Z,50.05
2023-01-19T12:00:25.189Z,50.22
2023-01-19T12:03:02.708Z,50.19
2023-01-19T12:05:35.815Z,50.13
2023-01-19T12:08:08.808Z,50.27
2023-01-19T12:10:41.674Z,50.36
2023-01-19T12:13:20.489Z,50.15
2023-01-19T12:15:52.076Z,50.05
2023-01-19T12:18:24.203Z,49.79
2023-01-19T12:20:55.104Z,49.87
2023-01-19T12:23:31.440Z,49.81
2023-01-19T12:26:16.508Z,49.48
2023-01-19T12:28:47.298Z,48.82
2023-01-19T12:31:18.384Z,48.63
2023-01-19T12:33:47.101Z,48.47
2023-01-19T12:36:38.764Z,47.54
2023-01-19T12:39:14.410Z,47.48
2023-01-19T12:41:43.931Z,47.59
2023-01-19T12:47:23.069Z,48.55
2023-01-19T12:49:53.740Z,49.03
2023-01-19T12:52:34.417Z,49.20
2023-01-19T12:55:08.762Z,49.19
2023-01-19T12:57:41.012Z,49.81
2023-01-19T13:00:32.764Z,50.13
2023-01-19T13:03:02.020Z,50.59
2023-01-19T13:06:00.247Z,49.97
2023-01-19T13:08:58.219Z,49.48
2023-01-19T13:11:29.382Z,49.21
2023-01-19T13:14:34.868Z,48.47
2023-01-19T13:17:07.671Z,48.57
2023-01-19T13:19:46.218Z,48.83
2023-01-19T13:22:54.072Z,48.78
2023-01-19T13:25:42.599Z,48.45
2023-01-19T13:28:12.131Z,48.48
2023-01-19T13:30:54.038Z,48.71
2023-01-19T13:33:25.396Z,48.96
2023-01-19T13:35:56.311Z,48.66
2023-01-19T13:38:26.803Z,47.88
2023-01-19T13:40:58.230Z,47.69
2023-01-19T13:43:31.713Z,47.84
2023-01-19T13:46:01.105Z,47.99
2023-01-19T13:48:29.272Z,48.14
2023-01-19T13:51:00.054Z,47.33
2023-01-19T13:53:29.491Z,47.68
2023-01-19T13:56:23.349Z,48.13
2023-01-19T13:59:12.786Z,47.75
2023-01-19T14:01:43.546Z,47.63
2023-01-19T14:04:31.437Z,47.90
2023-01-19T14:07:02.685Z,48.61
2023-01-19T14:09:31.115Z,48.93
2023-01-19T14:12:18.883Z,49.79
2023-01-19T14:14:48.430Z,49.83
2023-01-19T14:17:34.044Z,50.18
2023-01-19T14:20:02.189Z,50.04
2023-01-19T14:22:50.652Z,50.43
2023-01-19T14:25:29.445Z,50.49
2023-01-19T14:28:39.382Z,50.74
2023-01-19T14:31:23.660Z,50.68
2023-01-19T14:33:53.716Z,50.56
2023-01-19T14:36:42.084Z,51.06
2023-01-19T14:39:18.516Z,50.90
2023-01-19T14:42:04.883Z,51.42
2023-01-19T14:44:38.570Z,51.00
2023-01-19T14:47:21.764Z,51.02
2023-01-19T14:49:50.202Z,51.23
2023-01-19T14:52:23.432Z,51.45
2023-01-19T14:54:51.885Z,51.61
2023-01-19T14:57:19.873Z,51.54
2023-01-19T14:59:50.421Z,51.16
2023-01-19T15:02:19.750Z,51.54
2023-01-19T15:04:49.041Z,51.34
2023-01-19T15:07:20.104Z,51.59
2023-01-19T15:09:48.746Z,51.78
2023-01-19T15:12:20.774Z,51.68
2023-01-19T15:14:51.010Z,51.86
2023-01-19T15:17:25.684Z,51.57
2023-01-19T15:19:55.521Z,52.08
2023-01-19T15:22:27.446Z,51.59
2023-01-19T15:24:57.698Z,52.44
2023-01-19T15:27:28.862Z,52.29
2023-01-19T15:29:59.622Z,52.52
2023-01-19T15:32:27.778Z,52.58
2023-01-19T15:34:55.838Z,53.38
2023-01-19T15:37:25.106Z,53.12
2023-01-19T15:39:53.121Z,53.04
2023-01-19T15:42:21.073Z,53.36
2023-01-19T15:44:49.030Z,53.40
2023-01-19T15:47:18.951Z,53.54
2023-01-19T15:49:47.468Z,53.05
2023-01-19T15:52:17.102Z,53.37
2023-01-19T15:54:45.264Z,53.71
2023-01-19T15:57:13.247Z,53.92
2023-01-19T15:59:41.384Z,55.88
2023-01-19T16:02:10.817Z,56.31
2023-01-19T16:04:40.319Z,59.21
2023-01-19T16:07:08.338Z,57.04
2023-01-19T16:09:36.383Z,57.25
2023-01-19T16:12:04.932Z,58.75
2023-01-19T16:14:33.187Z,57.78
2023-01-19T16:17:01.872Z,58.77
2023-01-19T16:19:29.938Z,62.14
2023-01-19T16:21:59.331Z,67.41
2023-01-19T16:24:27.374Z,71.67
2023-01-19T16:26:55.452Z,75.67
2023-01-19T16:29:23.495Z,85.30
2023-01-19T16:31:51.538Z,100.00
2023-01-19T16:34:19.739Z,100.00
2023-01-19T16:36:47.794Z,100.00
2023-01-19T16:39:20.411Z,100.00
2023-01-19T16:41:48.459Z,100.00
2023-01-19T16:44:17.604Z,100.00
2023-01-19T16:46:49.690Z,100.00
2023-01-19T16:49:23.197Z,100.00
2023-01-19T16:51:52.953Z,100.00
2023-01-19T16:54:25.995Z,100.00
2023-01-19T16:56:55.672Z,100.00
2023-01-19T16:59:24.689Z,100.00
2023-01-19T17:01:53.253Z,100.00
2023-01-19T17:04:22.957Z,100.00
2023-01-19T17:06:51.110Z,100.00
2023-01-19T17:09:20.018Z,100.00
2023-01-19T17:11:49.845Z,100.00
2023-01-19T17:14:21.273Z,100.00
2023-01-19T17:16:49.861Z,100.00
2023-01-19T17:19:20.498Z,100.00
2023-01-19T17:21:49.815Z,100.00
2023-01-19T17:24:18.691Z,100.00
2023-01-19T17:26:48.934Z,100.00
2023-01-19T17:29:18.739Z,100.00
2023-01-19T17:31:47.002Z,100.00
2023-01-19T17:34:15.331Z,100.00
2023-01-19T17:36:43.405Z,100.00
2023-01-19T17:39:15.087Z,100.00
2023-01-19T17:41:43.219Z,100.00
2023-01-19T17:44:11.975Z,100.00
2023-01-19T17:46:41.543Z,100.00
2023-01-19T17:49:09.779Z,100.00
2023-01-19T17:51:38.209Z,100.00
2023-01-19T17:54:07.573Z,100.00
2023-01-19T17:56:38.936Z,100.00
2023-01-19T17:59:08.346Z,100.00
2023-01-19T18:01:40.399Z,100.00
2023-01-19T18:04:10.743Z,100.00
2023-01-19T18:06:38.954Z,100.00
2023-01-19T18:09:07.850Z,100.00
2023-01-19T18:11:36.477Z,100.00
2023-01-19T18:14:05.502Z,100.00
2023-01-19T18:16:33.748Z,100.00
2023-01-19T18:19:02.157Z,100.00
2023-01-19T18:21:31.594Z,100.00
2023-01-19T18:24:02.616Z,100.00
2023-01-19T18:26:31.875Z,100.00
2023-01-19T18:29:00.528Z,100.00
2023-01-19T18:31:29.367Z,100.00
2023-01-19T18:33:57.647Z,100.00
2023-01-19T18:36:39.760Z,100.00
2023-01-19T18:39:09.558Z,100.00
2023-01-19T18:41:41.755Z,100.00
2023-01-19T18:44:10.501Z,100.00
2023-01-19T18:46:39.364Z,100.00
2023-01-19T18:49:07.568Z,100.00
2023-01-19T18:51:36.820Z,100.00
2023-01-19T18:54:05.172Z,100.00
2023-01-19T18:56:34.859Z,100.00
2023-01-19T18:59:03.348Z,100.00
2023-01-19T19:01:35.026Z,100.00
2023-01-19T19:04:03.567Z,100.00
2023-01-19T19:06:31.685Z,100.00
2023-01-19T19:09:00.664Z,100.00
2023-01-19T19:11:29.159Z,100.00
2023-01-19T19:14:00.166Z,100.00
2023-01-19T19:16:28.672Z,100.00
2023-01-19T19:18:56.977Z,100.00
2023-01-19T19:21:25.819Z,100.00
2023-01-19T19:23:55.173Z,100.00
2023-01-19T19:26:24.496Z,100.00
2023-01-19T19:28:52.650Z,100.00
2023-01-19T19:31:25.633Z,100.00
2023-01-19T19:33:53.641Z,100.00
2023-01-19T19:36:23.276Z,100.00
2023-01-19T19:38:51.772Z,100.00
2023-01-19T19:41:21.530Z,100.00
2023-01-19T19:43:49.651Z,100.00
2023-01-19T19:46:20.372Z,100.00
2023-01-19T19:48:50.659Z,100.00
2023-01-19T19:51:22.908Z,100.00
2023-01-19T19:53:56.169Z,100.00
2023-01-19T19:56:26.120Z,100.00
2023-01-19T19:58:57.859Z,100.00
2023-01-19T20:01:32.036Z,100.00
2023-01-19T20:04:07.534Z,100.00
2023-01-19T20:06:38.962Z,100.00
2023-01-19T20:09:12.789Z,100.00
2023-01-19T20:11:41.844Z,100.00
2023-01-19T20:14:12.790Z,100.00
2023-01-19T20:16:41.225Z,100.00
2023-01-19T20:19:11.137Z,100.00
2023-01-19T20:21:43.488Z,100.00
2023-01-19T20:24:14.991Z,100.00
2023-01-19T20:26:46.057Z,100.00
2023-01-19T20:29:14.445Z,100.00
2023-01-19T20:31:45.835Z,100.00
2023-01-19T20:34:19.024Z,100.00
2023-01-19T20:36:50.704Z,100.00
2023-01-19T20:39:19.982Z,100.00
2023-01-19T20:41:50.920Z,100.00
2023-01-19T20:44:22.409Z,100.00
2023-01-19T20:46:50.985Z,100.00
2023-01-19T20:49:20.568Z,100.00
2023-01-19T20:51:51.367Z,100.00
2023-01-19T20:54:22.127Z,100.00
2023-01-19T20:56:50.966Z,100.00
2023-01-19T20:59:19.755Z,100.00
2023-01-19T21:01:49.496Z,100.00
2023-01-19T21:04:18.570Z,100.00
2023-01-19T21:06:49.048Z,100.00
2023-01-19T21:09:18.642Z,100.00
2023-01-19T21:11:46.951Z,100.00
2023-01-19T21:14:16.319Z,100.00
2023-01-19T21:16:44.998Z,100.00
2023-01-19T21:19:13.379Z,100.00
2023-01-19T21:21:42.015Z,100.00
2023-01-19T21:24:12.251Z,100.00
2023-01-19T21:26:41.850Z,100.00
2023-01-19T21:29:14.060Z,100.00
2023-01-19T21:31:42.284Z,100.00
2023-01-19T21:34:11.019Z,100.00
2023-01-19T21:36:39.577Z,100.00
2023-01-19T21:39:08.501Z,100.00
2023-01-19T21:41:42.615Z,100.00
2023-01-19T21:44:12.549Z,100.00
2023-01-19T21:46:40.821Z,100.00
2023-01-19T21:49:14.354Z,100.00
2023-01-19T21:51:42.824Z,100.00
2023-01-19T21:54:11.048Z,100.00
2023-01-19T21:56:43.257Z,100.00
2023-01-19T21:59:13.151Z,100.00
2023-01-19T22:01:41.422Z,100.00
2023-01-19T22:04:09.946Z,100.00
2023-01-19T22:06:38.769Z,100.00
2023-01-19T22:09:07.500Z,100.00
2023-01-19T22:11:35.526Z,100.00
2023-01-19T22:14:05.191Z,100.00
2023-01-19T22:16:33.270Z,100.00
2023-01-19T22:19:02.552Z,100.00
2023-01-19T22:21:33.225Z,100.00
2023-01-19T22:24:03.079Z,100.00
2023-01-19T22:26:32.199Z,100.00
2023-01-19T22:29:02.474Z,100.00
2023-01-19T22:31:32.422Z,100.00
2023-01-19T22:34:00.526Z,100.00
2023-01-19T22:36:30.284Z,100.00
2023-01-19T22:39:00.040Z,100.00
2023-01-19T22:41:30.190Z,100.00
2023-01-19T22:44:00.082Z,100.00
2023-01-19T22:46:30.076Z,100.00
2023-01-19T22:49:00.493Z,100.00
2023-01-19T22:51:30.658Z,100.00
2023-01-19T22:53:59.475Z,100.00
2023-01-19T22:56:29.247Z,100.00
2023-01-19T22:58:58.298Z,100.00
2023-01-19T23:01:28.591Z,100.00
2023-01-19T23:03:56.735Z,100.00
2023-01-19T23:06:27.757Z,100.00
2023-01-19T23:08:57.075Z,100.00
2023-01-19T23:11:27.068Z,100.00
2023-01-19T23:13:55.397Z,100.00
2023-01-19T23:16:23.609Z,100.00
2023-01-19T23:18:54.603Z,100.00
2023-01-19T23:21:24.446Z,100.00
2023-01-19T23:23:56.291Z,100.00
2023-01-19T23:26:25.513Z,100.00
2023-01-19T23:28:56.385Z,100.00
2023-01-19T23:31:26.790Z,100.00
2023-01-19T23:33:56.717Z,100.00
2023-01-19T23:36:26.251Z,100.00
2023-01-19T23:38:57.157Z,100.00
2023-01-19T23:41:26.037Z,100.00
2023-01-19T23:43:54.013Z,100.00
2023-01-19T23:46:22.533Z,100.00
2023-01-19T23:48:50.727Z,100.00
2023-01-19T23:51:21.029Z,100.00
2023-01-19T23:53:49.542Z,100.00
2023-01-19T23:56:21.588Z,100.00
2023-01-19T23:58:53.940Z,100.00
